Time;durP1;ratioP1;P1;durP2;ratioP2;P2;SDS_P1;SDS_P2;PMS_P1;PMS_P2;Temp;Humidity;BMP_temperature;BMP_pressure;BME280_temperature;BME280_humidity;BME280_pressure;Samples;Min_cycle;Max_cycle;Signal;HPM_P1;HPM_P2
2023/05/17 00:01:19;;;;;;;17.45;2.75;;;8.20;99.90;;;;;;5087575;28;20403;-83
2023/05/17 00:03:45;;;;;;;13.82;3.40;;;8.10;99.90;;;;;;5094010;28;20108;-85
2023/05/17 00:06:10;;;;;;;15.13;2.92;;;8.10;99.90;;;;;;5077128;28;20039;-83
2023/05/17 00:08:36;;;;;;;15.90;2.85;;;8.10;99.90;;;;;;5086376;28;20520;-84
2023/05/17 00:11:02;;;;;;;16.33;3.03;;;8.00;99.90;;;;;;5089190;28;20484;-83
2023/05/17 00:13:27;;;;;;;13.13;2.67;;;8.00;99.90;;;;;;5090773;28;20070;-83
2023/05/17 00:15:53;;;;;;;13.35;2.88;;;8.00;99.90;;;;;;5065907;28;20063;-85
2023/05/17 00:18:18;;;;;;;13.60;2.67;;;8.00;99.90;;;;;;5088485;28;20036;-83
2023/05/17 00:20:44;;;;;;;13.68;3.10;;;8.00;99.90;;;;;;5093391;28;20043;-84
2023/05/17 00:23:09;;;;;;;13.63;2.65;;;8.00;99.90;;;;;;5091101;28;20446;-83
2023/05/17 00:25:35;;;;;;;18.45;2.97;;;8.00;99.90;;;;;;5084349;28;20040;-84
2023/05/17 00:28:01;;;;;;;15.20;2.78;;;8.10;99.90;;;;;;5085512;28;20683;-82
2023/05/17 00:30:26;;;;;;;15.30;3.20;;;8.10;99.90;;;;;;5085269;28;20036;-83
2023/05/17 00:32:52;;;;;;;14.73;2.78;;;8.10;99.90;;;;;;5092206;28;20119;-84
2023/05/17 00:35:17;;;;;;;10.98;2.20;;;8.10;99.90;;;;;;5074389;28;20071;-83
2023/05/17 00:37:46;;;;;;;14.43;2.85;;;8.20;99.90;;;;;;5089172;28;20036;-83
2023/05/17 00:40:14;;;;;;;11.90;2.83;;;8.20;99.90;;;;;;5092022;28;20036;-83
2023/05/17 00:42:40;;;;;;;12.15;2.58;;;8.30;99.90;;;;;;5089822;28;20031;-84
2023/05/17 00:45:06;;;;;;;18.95;3.50;;;8.30;99.90;;;;;;5089708;28;20455;-84
2023/05/17 00:47:31;;;;;;;15.32;3.03;;;8.30;99.90;;;;;;5065676;28;20035;-84
2023/05/17 00:49:57;;;;;;;15.93;2.85;;;8.30;99.90;;;;;;5070638;28;20040;-84
2023/05/17 00:52:23;;;;;;;15.70;2.95;;;8.40;99.90;;;;;;5090926;28;20032;-84
2023/05/17 00:54:50;;;;;;;17.35;2.83;;;8.40;99.90;;;;;;5093261;28;20558;-84
2023/05/17 00:57:16;;;;;;;13.27;2.90;;;8.40;99.90;;;;;;5086996;28;20041;-83
2023/05/17 00:59:43;;;;;;;15.95;3.42;;;8.40;99.90;;;;;;5083443;28;20632;-82
2023/05/17 01:02:10;;;;;;;20.30;3.75;;;8.50;99.90;;;;;;5070617;28;20100;-81
2023/05/17 01:04:37;;;;;;;15.98;3.25;;;8.50;99.90;;;;;;5100964;28;20047;-83
2023/05/17 01:07:02;;;;;;;18.20;3.50;;;8.40;99.90;;;;;;5093359;28;20062;-81
2023/05/17 01:09:28;;;;;;;21.65;3.80;;;8.50;99.90;;;;;;5091765;28;20044;-80
2023/05/17 01:12:22;;;;;;;14.23;2.80;;;8.40;99.90;;;;;;5090670;28;20538;-84
2023/05/17 01:15:18;;;;;;;14.65;3.50;;;8.40;99.90;;;;;;5085159;28;20036;-83
2023/05/17 01:18:03;;;;;;;15.15;3.25;;;8.40;99.90;;;;;;5086649;28;20491;-83
2023/05/17 01:20:36;;;;;;;13.88;3.35;;;8.30;99.90;;;;;;5092100;28;20047;-83
2023/05/17 01:23:26;;;;;;;18.60;2.80;;;8.20;99.90;;;;;;5089166;28;20074;-82
2023/05/17 01:26:00;;;;;;;14.82;2.58;;;8.20;99.90;;;;;;5082412;28;20043;-82
2023/05/17 01:28:28;;;;;;;9.45;2.35;;;8.10;99.90;;;;;;5073535;28;20043;-82
2023/05/17 01:30:57;;;;;;;16.52;3.15;;;8.00;99.90;;;;;;5085806;28;20100;-82
2023/05/17 01:33:23;;;;;;;12.70;2.45;;;8.00;99.90;;;;;;5067368;28;20086;-83
2023/05/17 01:35:49;;;;;;;12.60;2.97;;;7.90;99.90;;;;;;5088068;28;20065;-83
2023/05/17 01:38:15;;;;;;;12.10;2.50;;;7.80;99.90;;;;;;5083956;28;20113;-84
2023/05/17 01:40:58;;;;;;;12.13;2.58;;;7.80;99.90;;;;;;5091120;28;20028;-84
2023/05/17 01:43:45;;;;;;;13.10;2.50;;;7.70;99.90;;;;;;5073843;28;20415;-84
2023/05/17 01:46:25;;;;;;;13.93;2.60;;;7.70;99.90;;;;;;5072463;28;20035;-84
2023/05/17 01:48:59;;;;;;;17.05;3.25;;;7.70;99.90;;;;;;5085707;28;20059;-84
2023/05/17 01:51:30;;;;;;;11.85;2.53;;;7.60;99.90;;;;;;5085888;28;20177;-83
2023/05/17 01:54:00;;;;;;;13.73;2.22;;;7.60;99.90;;;;;;5090517;28;20035;-83
2023/05/17 01:56:33;;;;;;;13.35;2.88;;;7.60;99.90;;;;;;5090270;28;20036;-83
2023/05/17 01:59:03;;;;;;;9.88;3.10;;;7.60;99.90;;;;;;5075701;28;20032;-84
2023/05/17 02:01:30;;;;;;;12.45;1.95;;;7.60;99.90;;;;;;5080178;28;20044;-83
2023/05/17 02:03:57;;;;;;;14.18;3.03;;;7.60;99.90;;;;;;5084205;28;20446;-84
2023/05/17 02:06:22;;;;;;;16.40;2.80;;;7.60;99.90;;;;;;5088753;28;20039;-84
2023/05/17 02:08:48;;;;;;;13.50;3.15;;;7.60;99.90;;;;;;5086210;28;20518;-83
2023/05/17 02:11:13;;;;;;;10.15;2.08;;;7.50;99.90;;;;;;5085208;28;20050;-83
2023/05/17 02:13:39;;;;;;;12.50;2.47;;;7.50;99.90;;;;;;5081886;28;20079;-84
2023/05/17 02:16:05;;;;;;;13.50;2.80;;;7.50;99.90;;;;;;5087420;28;20110;-83
2023/05/17 02:18:34;;;;;;;10.15;2.10;;;7.50;99.90;;;;;;5090205;28;20850;-84
2023/05/17 02:21:00;;;;;;;10.63;1.98;;;7.60;99.90;;;;;;5090961;28;20078;-83
2023/05/17 02:23:25;;;;;;;14.57;2.30;;;7.60;99.90;;;;;;5079767;28;20495;-85
2023/05/17 02:25:51;;;;;;;15.07;2.55;;;7.60;99.90;;;;;;5086853;28;20028;-83
2023/05/17 02:28:16;;;;;;;10.25;2.10;;;7.70;99.90;;;;;;5086189;28;20197;-84
2023/05/17 02:30:43;;;;;;;10.63;1.90;;;7.70;99.90;;;;;;5090298;28;20036;-84
2023/05/17 02:33:08;;;;;;;7.50;2.42;;;7.80;99.90;;;;;;5071415;28;20032;-84
2023/05/17 02:35:34;;;;;;;11.05;1.80;;;7.80;99.90;;;;;;5089110;28;20433;-84
2023/05/17 02:37:59;;;;;;;14.00;2.35;;;7.90;99.90;;;;;;5072411;28;20036;-85
2023/05/17 02:40:25;;;;;;;8.73;1.77;;;8.00;99.90;;;;;;5089045;28;20039;-84
2023/05/17 02:42:51;;;;;;;10.95;2.08;;;7.90;99.90;;;;;;5068537;28;20112;-83
2023/05/17 02:45:16;;;;;;;11.45;2.10;;;8.00;99.90;;;;;;5086291;28;20093;-83
2023/05/17 02:47:42;;;;;;;12.80;2.60;;;8.00;99.90;;;;;;5089516;28;20040;-84
2023/05/17 02:50:08;;;;;;;9.75;1.90;;;8.00;99.90;;;;;;5070547;28;20075;-83
2023/05/17 02:52:34;;;;;;;11.90;1.95;;;8.10;99.90;;;;;;5088549;28;20028;-84
2023/05/17 02:54:59;;;;;;;7.40;1.98;;;8.10;99.90;;;;;;5088876;28;20032;-81
2023/05/17 02:57:25;;;;;;;9.57;1.77;;;8.10;99.90;;;;;;5090166;28;20078;-83
2023/05/17 02:59:50;;;;;;;9.23;1.90;;;8.10;99.90;;;;;;5090607;28;20399;-83
2023/05/17 03:02:16;;;;;;;15.27;2.08;;;8.10;99.90;;;;;;5067958;28;20044;-83
2023/05/17 03:04:41;;;;;;;8.43;2.10;;;8.10;99.90;;;;;;5096640;28;20090;-82
2023/05/17 03:07:07;;;;;;;11.07;2.88;;;8.10;99.90;;;;;;5094050;28;20067;-83
2023/05/17 03:09:33;;;;;;;9.65;1.98;;;8.10;99.90;;;;;;5072322;28;20040;-80
2023/05/17 03:11:59;;;;;;;13.75;2.10;;;8.10;99.90;;;;;;5093390;28;20523;-83
2023/05/17 03:14:24;;;;;;;14.95;2.03;;;8.00;99.90;;;;;;5092228;28;20048;-84
2023/05/17 03:16:50;;;;;;;11.13;2.58;;;8.00;99.90;;;;;;5089974;28;20040;-82
2023/05/17 03:19:15;;;;;;;9.98;2.08;;;7.90;99.90;;;;;;5091124;28;20036;-83
2023/05/17 03:21:41;;;;;;;12.85;2.55;;;7.90;99.90;;;;;;5093162;28;20040;-81
2023/05/17 03:24:06;;;;;;;7.95;1.85;;;7.90;99.90;;;;;;5086557;28;20036;-83
2023/05/17 03:26:32;;;;;;;11.35;1.83;;;7.80;99.90;;;;;;5087592;28;20074;-83
2023/05/17 03:28:58;;;;;;;13.60;2.30;;;7.80;99.90;;;;;;5087739;28;20549;-83
2023/05/17 03:31:24;;;;;;;9.50;1.80;;;7.70;99.90;;;;;;5089040;28;20044;-83
2023/05/17 03:33:49;;;;;;;8.25;2.03;;;7.70;99.90;;;;;;5090979;28;20032;-82
2023/05/17 03:36:15;;;;;;;8.20;1.58;;;7.60;99.90;;;;;;5090173;28;20183;-82
2023/05/17 03:38:41;;;;;;;9.98;1.70;;;7.60;99.90;;;;;;5090874;28;20063;-84
2023/05/17 03:41:06;;;;;;;6.85;1.67;;;7.60;99.90;;;;;;5103170;28;20036;-83
2023/05/17 03:43:32;;;;;;;8.48;1.58;;;7.60;99.90;;;;;;5094070;28;20043;-83
2023/05/17 03:45:58;;;;;;;11.57;1.80;;;7.60;99.90;;;;;;5077619;28;20047;-84
2023/05/17 03:48:23;;;;;;;7.78;1.50;;;7.60;99.90;;;;;;5071854;28;20036;-82
2023/05/17 03:50:49;;;;;;;6.38;1.33;;;7.70;99.90;;;;;;5096119;28;20407;-83
2023/05/17 03:53:14;;;;;;;7.43;1.65;;;7.70;99.90;;;;;;5095093;28;20071;-82
2023/05/17 03:55:40;;;;;;;7.05;1.45;;;7.70;99.90;;;;;;5095232;28;20089;-83
2023/05/17 03:58:06;;;;;;;8.23;1.95;;;7.80;99.90;;;;;;5079786;28;20027;-83
2023/05/17 04:00:31;;;;;;;14.55;1.58;;;7.90;99.90;;;;;;5095665;28;20085;-83
2023/05/17 04:02:57;;;;;;;8.05;1.67;;;7.90;99.90;;;;;;5079141;28;20035;-85
2023/05/17 04:05:24;;;;;;;10.25;1.75;;;7.90;99.90;;;;;;5080224;28;20048;-84
2023/05/17 04:07:49;;;;;;;10.05;1.60;;;8.00;99.90;;;;;;5096100;28;20170;-83
2023/05/17 04:10:15;;;;;;;6.78;1.88;;;8.00;99.90;;;;;;5095419;28;20072;-85
2023/05/17 04:12:40;;;;;;;11.25;1.65;;;8.00;99.90;;;;;;5091882;28;20115;-84
2023/05/17 04:15:07;;;;;;;4.38;1.20;;;8.00;99.90;;;;;;5095365;28;20521;-85
2023/05/17 04:17:32;;;;;;;6.85;1.35;;;8.00;99.90;;;;;;5076628;28;20053;-83
2023/05/17 04:19:58;;;;;;;6.65;1.38;;;8.00;99.90;;;;;;5095863;28;20035;-83
2023/05/17 04:22:23;;;;;;;5.93;1.60;;;8.00;99.90;;;;;;5097667;28;20043;-84
2023/05/17 04:24:49;;;;;;;7.57;1.27;;;8.10;99.90;;;;;;5089861;28;20036;-83
2023/05/17 04:27:15;;;;;;;10.23;1.95;;;8.10;99.90;;;;;;5086323;28;20499;-84
2023/05/17 04:29:40;;;;;;;11.05;1.30;;;8.10;99.90;;;;;;5094798;28;20209;-83
2023/05/17 04:32:07;;;;;;;7.82;1.48;;;8.00;99.90;;;;;;5090005;28;20491;-84
2023/05/17 04:34:32;;;;;;;6.32;1.20;;;8.00;99.90;;;;;;5080608;28;20059;-83
2023/05/17 04:36:58;;;;;;;11.93;1.48;;;8.10;99.90;;;;;;5094049;28;20036;-83
2023/05/17 04:39:24;;;;;;;7.10;1.55;;;8.00;99.90;;;;;;5091028;28;21301;-84
2023/05/17 04:41:49;;;;;;;10.15;1.35;;;8.00;99.90;;;;;;5095720;28;20036;-83
2023/05/17 04:44:15;;;;;;;9.00;1.50;;;8.10;99.90;;;;;;5077090;28;20751;-83
2023/05/17 04:46:42;;;;;;;7.10;1.27;;;8.10;99.90;;;;;;5094632;28;20076;-83
2023/05/17 04:49:08;;;;;;;8.35;1.42;;;8.10;99.90;;;;;;5092569;28;20041;-83
2023/05/17 04:51:34;;;;;;;7.75;1.35;;;8.20;99.90;;;;;;5083330;28;20115;-84
2023/05/17 04:53:59;;;;;;;7.32;1.33;;;8.20;99.90;;;;;;5065745;28;20039;-83
2023/05/17 04:56:26;;;;;;;5.65;1.25;;;8.20;99.90;;;;;;5089415;28;20073;-83
2023/05/17 04:58:52;;;;;;;13.65;1.63;;;8.30;99.90;;;;;;5095569;28;20092;-84
2023/05/17 05:01:17;;;;;;;4.90;1.10;;;8.30;99.90;;;;;;5092399;28;20748;-83
2023/05/17 05:03:43;;;;;;;8.05;1.50;;;8.30;99.90;;;;;;5087965;28;20035;-84
2023/05/17 05:06:09;;;;;;;9.25;1.40;;;8.30;99.90;;;;;;5073577;28;20129;-83
2023/05/17 05:08:34;;;;;;;6.10;1.30;;;8.30;99.90;;;;;;5097461;28;20046;-84
2023/05/17 05:11:00;;;;;;;7.15;1.25;;;8.30;99.90;;;;;;5091634;28;20040;-85
2023/05/17 05:13:25;;;;;;;6.10;1.50;;;8.30;99.90;;;;;;5079622;28;20119;-84
2023/05/17 05:15:51;;;;;;;6.15;1.30;;;8.40;99.90;;;;;;5080157;28;20744;-84
2023/05/17 05:18:16;;;;;;;7.28;1.30;;;8.40;99.90;;;;;;5103588;28;20058;-84
2023/05/17 05:20:42;;;;;;;13.23;1.67;;;8.40;99.90;;;;;;5085339;28;20039;-84
2023/05/17 05:23:08;;;;;;;6.30;1.35;;;8.50;99.90;;;;;;5100704;28;20560;-84
2023/05/17 05:25:34;;;;;;;8.52;1.23;;;8.50;99.90;;;;;;5115880;28;20046;-85
2023/05/17 05:27:59;;;;;;;8.02;1.17;;;8.60;99.90;;;;;;5099001;28;20043;-84
2023/05/17 05:30:25;;;;;;;9.45;1.40;;;8.60;99.90;;;;;;5094491;28;20038;-84
2023/05/17 05:32:51;;;;;;;7.10;1.30;;;8.60;99.90;;;;;;5079027;28;20046;-84
2023/05/17 05:35:17;;;;;;;7.03;1.60;;;8.60;99.90;;;;;;5095854;28;20036;-84
2023/05/17 05:37:43;;;;;;;7.03;1.48;;;8.60;99.90;;;;;;5084885;28;20024;-83
2023/05/17 05:40:10;;;;;;;6.97;1.40;;;8.70;99.90;;;;;;5082048;28;20091;-84
2023/05/17 05:42:36;;;;;;;6.68;1.50;;;8.80;99.90;;;;;;5066209;28;20040;-83
2023/05/17 05:45:01;;;;;;;10.63;1.65;;;8.80;99.90;;;;;;5093489;28;20064;-82
2023/05/17 05:47:27;;;;;;;7.95;1.65;;;8.90;99.90;;;;;;5070691;28;20058;-81
2023/05/17 05:49:52;;;;;;;9.82;1.63;;;9.00;99.90;;;;;;5081144;28;20092;-83
2023/05/17 05:52:18;;;;;;;11.10;2.08;;;9.00;99.90;;;;;;5094179;28;20036;-84
2023/05/17 05:54:44;;;;;;;7.00;1.30;;;9.00;99.90;;;;;;5094705;28;20036;-83
2023/05/17 05:57:10;;;;;;;6.80;1.17;;;9.20;99.90;;;;;;5076805;28;20060;-81
2023/05/17 05:59:35;;;;;;;10.52;2.25;;;9.40;99.90;;;;;;5091654;28;20105;-84
2023/05/17 06:02:01;;;;;;;12.32;2.38;;;9.40;99.90;;;;;;5094929;28;20108;-83
2023/05/17 06:04:27;;;;;;;10.90;1.73;;;9.40;99.90;;;;;;5095404;28;20040;-83
2023/05/17 06:06:53;;;;;;;8.75;1.70;;;9.40;99.90;;;;;;5082414;28;20032;-85
2023/05/17 06:09:19;;;;;;;11.20;2.13;;;9.50;99.90;;;;;;5089686;28;20083;-83
2023/05/17 06:11:45;;;;;;;9.20;2.00;;;9.40;99.90;;;;;;5096923;28;20036;-83
2023/05/17 06:14:10;;;;;;;10.70;1.63;;;9.40;99.90;;;;;;5088378;28;20039;-83
2023/05/17 06:16:36;;;;;;;7.82;1.92;;;9.60;99.90;;;;;;5092641;28;20072;-84
2023/05/17 06:19:02;;;;;;;11.48;2.38;;;9.60;99.90;;;;;;5069042;28;20044;-83
2023/05/17 06:21:28;;;;;;;7.88;1.90;;;9.70;99.90;;;;;;5077897;28;20503;-84
2023/05/17 06:23:53;;;;;;;10.55;1.77;;;9.70;99.90;;;;;;5094222;28;20127;-83
2023/05/17 06:26:19;;;;;;;14.18;2.22;;;9.70;99.90;;;;;;5096267;28;20040;-81
2023/05/17 06:28:44;;;;;;;10.18;2.35;;;9.80;99.90;;;;;;5071963;28;20040;-83
2023/05/17 06:31:10;;;;;;;9.43;2.00;;;9.60;99.90;;;;;;5100398;28;20043;-82
2023/05/17 06:33:36;;;;;;;9.90;1.70;;;9.50;99.90;;;;;;5093941;28;20032;-84
2023/05/17 06:36:01;;;;;;;12.20;2.30;;;9.60;99.90;;;;;;5088195;28;20513;-82
2023/05/17 06:38:27;;;;;;;13.63;2.25;;;9.50;99.90;;;;;;5095079;28;20047;-85
2023/05/17 06:40:54;;;;;;;11.70;2.13;;;9.50;99.90;;;;;;5093883;28;20047;-82
2023/05/17 06:43:20;;;;;;;13.00;2.72;;;9.50;99.90;;;;;;5093839;28;20104;-81
2023/05/17 06:45:45;;;;;;;14.27;1.98;;;9.50;99.90;;;;;;5093899;28;20043;-83
2023/05/17 06:48:11;;;;;;;11.98;2.45;;;9.50;99.90;;;;;;5092504;28;20031;-84
2023/05/17 06:50:37;;;;;;;17.13;2.42;;;9.50;99.90;;;;;;5092827;28;20436;-83
2023/05/17 06:53:03;;;;;;;10.88;2.75;;;9.60;99.90;;;;;;5093985;28;20095;-83
2023/05/17 06:55:29;;;;;;;14.55;2.83;;;9.60;99.90;;;;;;5070820;28;20032;-83
2023/05/17 06:57:55;;;;;;;15.13;2.28;;;9.60;99.90;;;;;;5069991;28;20377;-83
2023/05/17 07:00:21;;;;;;;12.50;2.15;;;9.70;99.90;;;;;;5096627;28;20044;-84
2023/05/17 07:02:46;;;;;;;12.30;2.20;;;9.70;99.90;;;;;;5092988;28;20522;-83
2023/05/17 07:05:12;;;;;;;12.25;2.50;;;9.70;99.90;;;;;;5094119;28;20488;-81
2023/05/17 07:07:38;;;;;;;12.70;2.28;;;9.80;99.90;;;;;;5092105;28;20028;-83
2023/05/17 07:10:07;;;;;;;8.68;2.08;;;9.70;99.90;;;;;;5095674;28;20101;-83
2023/05/17 07:12:32;;;;;;;12.52;1.90;;;9.70;99.90;;;;;;5075781;28;20036;-83
2023/05/17 07:14:58;;;;;;;11.82;2.13;;;9.70;99.90;;;;;;5098263;28;20481;-84
2023/05/17 07:17:24;;;;;;;8.73;1.77;;;9.70;99.90;;;;;;5081410;28;20411;-84
2023/05/17 07:19:49;;;;;;;12.27;1.65;;;9.80;99.90;;;;;;5096976;28;20035;-83
2023/05/17 07:22:16;;;;;;;12.05;2.05;;;9.90;99.90;;;;;;5082223;28;20065;-84
2023/05/17 07:24:43;;;;;;;11.82;1.90;;;10.00;99.90;;;;;;5079674;28;20028;-83
2023/05/17 07:27:08;;;;;;;8.40;1.70;;;10.10;99.90;;;;;;5096585;28;20047;-84
2023/05/17 07:29:34;;;;;;;10.45;1.95;;;10.30;99.90;;;;;;5098058;28;20036;-84
2023/05/17 07:32:00;;;;;;;8.60;1.90;;;10.20;99.90;;;;;;5107840;28;20028;-84
2023/05/17 07:34:25;;;;;;;10.13;2.13;;;10.30;99.90;;;;;;5094329;28;20024;-82
2023/05/17 07:36:51;;;;;;;8.52;1.67;;;10.20;99.90;;;;;;5098434;28;20040;-83
2023/05/17 07:39:16;;;;;;;8.43;1.92;;;10.30;99.90;;;;;;5092001;28;20054;-83
2023/05/17 07:41:42;;;;;;;11.38;2.10;;;10.40;99.90;;;;;;5097233;28;20074;-82
2023/05/17 07:44:07;;;;;;;10.00;2.20;;;10.40;99.90;;;;;;5091790;28;20053;-82
2023/05/17 07:46:33;;;;;;;12.30;1.90;;;10.40;99.90;;;;;;5092683;28;20028;-83
2023/05/17 07:48:58;;;;;;;13.10;2.20;;;10.50;99.90;;;;;;5096900;28;20044;-83
2023/05/17 07:51:24;;;;;;;12.68;1.77;;;10.50;99.90;;;;;;5089583;28;20043;-83
2023/05/17 07:53:49;;;;;;;7.95;2.13;;;10.50;99.90;;;;;;5074731;28;20483;-83
2023/05/17 07:56:15;;;;;;;10.07;1.73;;;10.70;99.90;;;;;;5084896;28;20519;-82
2023/05/17 07:58:41;;;;;;;9.05;2.00;;;10.70;99.90;;;;;;5091384;28;20085;-84
2023/05/17 08:01:08;;;;;;;16.73;2.45;;;10.70;99.90;;;;;;5089353;28;20032;-82
2023/05/17 08:03:34;;;;;;;11.80;2.15;;;10.70;99.90;;;;;;5094572;28;20036;-84
2023/05/17 08:05:59;;;;;;;10.45;2.13;;;10.70;99.90;;;;;;5092279;28;20043;-84
2023/05/17 08:08:25;;;;;;;11.32;2.20;;;10.70;99.90;;;;;;5077956;28;20039;-82
2023/05/17 08:10:51;;;;;;;9.27;1.95;;;10.80;99.90;;;;;;5096155;28;20040;-82
2023/05/17 08:13:16;;;;;;;11.48;2.30;;;10.70;99.90;;;;;;5097233;28;20051;-84
2023/05/17 08:15:42;;;;;;;7.38;1.77;;;10.80;99.90;;;;;;5095311;28;20036;-84
2023/05/17 08:18:07;;;;;;;10.65;1.83;;;10.80;99.90;;;;;;5095174;28;20060;-84
2023/05/17 08:20:33;;;;;;;15.13;2.05;;;11.00;99.90;;;;;;5096560;28;20040;-82
2023/05/17 08:22:58;;;;;;;9.25;2.40;;;10.90;99.90;;;;;;5097303;28;20040;-83
2023/05/17 08:25:24;;;;;;;11.80;2.22;;;10.80;99.90;;;;;;5095231;28;20044;-85
2023/05/17 08:27:50;;;;;;;14.57;2.50;;;10.70;99.90;;;;;;5095711;28;20035;-82
2023/05/17 08:30:15;;;;;;;14.63;2.10;;;10.60;99.90;;;;;;5096063;28;20036;-83
2023/05/17 08:32:41;;;;;;;11.27;1.45;;;10.60;99.90;;;;;;5094176;28;20042;-84
2023/05/17 08:35:07;;;;;;;8.73;2.00;;;10.80;99.90;;;;;;5088162;28;20037;-82
2023/05/17 08:37:32;;;;;;;7.75;1.92;;;10.90;99.90;;;;;;5094823;28;20081;-85
2023/05/17 08:39:58;;;;;;;14.52;2.92;;;10.90;99.90;;;;;;5093473;28;20511;-84
2023/05/17 08:42:26;;;;;;;11.45;1.50;;;10.80;99.90;;;;;;5085306;28;20047;-82
2023/05/17 08:44:53;;;;;;;9.80;2.20;;;10.90;99.90;;;;;;5085877;28;20036;-83
2023/05/17 08:47:28;;;;;;;8.63;2.00;;;11.40;99.90;;;;;;5095781;28;20044;-83
2023/05/17 08:49:59;;;;;;;14.15;1.85;;;11.70;99.90;;;;;;5076948;28;20036;-83
2023/05/17 08:52:31;;;;;;;7.70;1.42;;;12.10;99.90;;;;;;5088112;28;20087;-82
2023/05/17 08:54:59;;;;;;;11.20;1.90;;;12.20;99.90;;;;;;5094363;28;20039;-79
2023/05/17 08:57:27;;;;;;;7.63;1.65;;;11.70;99.90;;;;;;5097260;28;20056;-82
2023/05/17 08:59:54;;;;;;;8.35;1.73;;;11.60;99.90;;;;;;5098794;28;20101;-81
2023/05/17 09:02:20;;;;;;;6.97;1.48;;;11.60;99.90;;;;;;5095335;28;20047;-81
2023/05/17 09:04:48;;;;;;;9.23;2.03;;;11.60;99.90;;;;;;5097017;28;20040;-82
2023/05/17 09:07:14;;;;;;;6.90;1.75;;;11.70;99.90;;;;;;5092762;28;20100;-82
2023/05/17 09:09:40;;;;;;;10.77;1.60;;;11.60;99.90;;;;;;5091411;28;20039;-83
2023/05/17 09:12:06;;;;;;;9.45;1.77;;;11.50;99.90;;;;;;5090716;28;20040;-81
2023/05/17 09:14:35;;;;;;;9.82;2.50;;;11.50;99.90;;;;;;5075357;28;20028;-81
2023/05/17 09:17:00;;;;;;;6.72;1.48;;;11.40;99.90;;;;;;5076769;28;20032;-83
2023/05/17 09:19:26;;;;;;;11.32;1.88;;;11.60;99.90;;;;;;5097141;28;20047;-82
2023/05/17 09:21:54;;;;;;;8.52;1.60;;;11.70;99.90;;;;;;5093955;28;20067;-81
2023/05/17 09:24:28;;;;;;;10.30;1.52;;;11.70;99.90;;;;;;5092732;28;20047;-81
2023/05/17 09:27:03;;;;;;;6.68;1.50;;;11.80;99.90;;;;;;5066244;28;20048;-81
2023/05/17 09:29:32;;;;;;;7.15;1.65;;;11.70;99.90;;;;;;5089227;28;20044;-84
2023/05/17 09:32:20;;;;;;;8.50;1.60;;;11.80;99.90;;;;;;5094280;28;20036;-83
2023/05/17 09:34:47;;;;;;;6.47;1.50;;;11.90;99.90;;;;;;5079422;28;20028;-83
2023/05/17 09:37:14;;;;;;;6.40;1.23;;;12.00;99.90;;;;;;5095198;28;20040;-84
2023/05/17 09:39:40;;;;;;;7.10;1.40;;;11.90;99.90;;;;;;5094141;28;20565;-83
2023/05/17 09:42:06;;;;;;;5.38;1.40;;;11.80;99.90;;;;;;5095016;28;20060;-84
2023/05/17 09:44:44;;;;;;;5.95;1.52;;;11.60;99.90;;;;;;5099864;28;20032;-80
2023/05/17 09:47:10;;;;;;;8.82;1.70;;;11.90;99.90;;;;;;5089447;28;20076;-84
2023/05/17 09:49:36;;;;;;;9.02;1.70;;;12.00;99.90;;;;;;5102634;28;20078;-81
2023/05/17 09:52:06;;;;;;;7.72;1.40;;;12.10;99.90;;;;;;5096087;28;20036;-82
2023/05/17 09:54:37;;;;;;;10.75;1.70;;;12.00;99.90;;;;;;5073916;28;20032;-83
2023/05/17 09:57:06;;;;;;;7.97;1.70;;;12.00;99.90;;;;;;5089634;28;20032;-82
2023/05/17 09:59:32;;;;;;;8.95;1.85;;;11.80;99.90;;;;;;5072972;28;20445;-82
2023/05/17 10:01:59;;;;;;;9.90;1.60;;;11.60;99.90;;;;;;5070632;28;20105;-82
2023/05/17 10:04:28;;;;;;;10.25;1.45;;;11.60;99.90;;;;;;5095513;28;20163;-82
2023/05/17 10:06:55;;;;;;;8.40;1.55;;;11.70;99.90;;;;;;5098234;28;20518;-83
2023/05/17 10:09:21;;;;;;;5.05;1.00;;;11.90;99.90;;;;;;5097369;28;20079;-82
2023/05/17 10:11:47;;;;;;;10.25;1.90;;;12.10;99.90;;;;;;5076514;28;20031;-82
2023/05/17 10:14:31;;;;;;;5.88;1.33;;;12.20;99.90;;;;;;5095726;28;20043;-83
2023/05/17 10:16:57;;;;;;;5.85;1.50;;;12.30;99.90;;;;;;5095954;28;20139;-83
2023/05/17 10:19:24;;;;;;;5.82;1.63;;;12.20;99.90;;;;;;5069893;28;20040;-82
2023/05/17 10:21:51;;;;;;;8.07;1.60;;;12.30;99.90;;;;;;5077249;28;20074;-84
2023/05/17 10:24:18;;;;;;;8.52;1.75;;;12.00;99.90;;;;;;5079162;28;20042;-83
2023/05/17 10:26:44;;;;;;;6.53;1.48;;;12.00;99.90;;;;;;5079355;28;20055;-83
2023/05/17 10:29:10;;;;;;;6.18;1.60;;;12.10;99.90;;;;;;5095702;28;20039;-84
2023/05/17 10:31:35;;;;;;;7.35;1.67;;;12.10;99.90;;;;;;5070053;28;20093;-84
2023/05/17 10:34:02;;;;;;;8.63;1.50;;;12.10;99.90;;;;;;5076074;28;20043;-82
2023/05/17 10:36:29;;;;;;;7.78;1.45;;;12.20;99.90;;;;;;5063939;28;20404;-84
2023/05/17 10:38:55;;;;;;;8.43;1.80;;;12.30;99.90;;;;;;5095926;28;20074;-80
2023/05/17 10:41:23;;;;;;;7.60;1.65;;;12.80;99.90;;;;;;5081692;28;20453;-83
2023/05/17 10:43:50;;;;;;;11.50;1.48;;;12.50;99.90;;;;;;5093347;28;20093;-84
2023/05/17 10:46:21;;;;;;;6.88;1.83;;;12.60;99.90;;;;;;5094177;28;20035;-82
2023/05/17 10:48:51;;;;;;;8.50;1.70;;;12.60;99.90;;;;;;5097047;28;20039;-82
2023/05/17 10:51:23;;;;;;;8.85;1.50;;;12.70;99.90;;;;;;5096359;28;20040;-84
2023/05/17 10:54:11;;;;;;;6.18;1.40;;;12.60;99.90;;;;;;5096248;28;20036;-83
2023/05/17 10:56:46;;;;;;;7.75;1.80;;;12.50;99.90;;;;;;5083422;28;20105;-83
2023/05/17 10:59:22;;;;;;;9.43;2.08;;;12.40;99.90;;;;;;5075100;28;20046;-84
2023/05/17 11:01:52;;;;;;;8.82;1.88;;;12.60;99.90;;;;;;5095425;28;20036;-83
2023/05/17 11:04:51;;;;;;;7.28;1.60;;;12.50;99.90;;;;;;5079983;28;20101;-83
2023/05/17 11:07:17;;;;;;;7.60;1.55;;;12.40;99.90;;;;;;5086440;28;20463;-84
2023/05/17 11:09:44;;;;;;;8.65;1.70;;;12.80;99.90;;;;;;5099882;28;20040;-83
2023/05/17 11:12:12;;;;;;;10.48;2.00;;;13.30;99.90;;;;;;5076854;28;20060;-82
2023/05/17 11:14:44;;;;;;;11.32;1.63;;;13.30;99.90;;;;;;5096041;28;20039;-81
2023/05/17 11:17:35;;;;;;;9.23;2.03;;;13.40;99.90;;;;;;5075291;28;20028;-84
2023/05/17 11:20:09;;;;;;;9.02;1.85;;;13.30;99.90;;;;;;5083566;28;20137;-83
2023/05/17 11:22:41;;;;;;;10.10;1.52;;;13.20;99.90;;;;;;5094543;28;20384;-82
2023/05/17 11:25:13;;;;;;;8.35;1.58;;;13.00;99.90;;;;;;5075525;28;20036;-83
2023/05/17 11:27:45;;;;;;;7.57;1.63;;;12.70;99.90;;;;;;5079338;28;20047;-83
2023/05/17 11:30:21;;;;;;;7.20;1.73;;;12.70;99.90;;;;;;5094854;28;20044;-82
2023/05/17 11:32:50;;;;;;;6.93;1.63;;;12.80;99.90;;;;;;5100934;28;20534;-83
2023/05/17 11:35:25;;;;;;;5.60;1.50;;;13.00;99.90;;;;;;5100316;28;20060;-82
2023/05/17 11:38:13;;;;;;;8.02;1.80;;;13.10;99.90;;;;;;5099079;28;20047;-82
2023/05/17 11:40:40;;;;;;;11.88;1.73;;;13.20;99.90;;;;;;5083971;28;20032;-83
2023/05/17 11:43:29;;;;;;;7.03;1.48;;;13.10;99.90;;;;;;5075529;28;20560;-80
2023/05/17 11:45:56;;;;;;;11.27;1.92;;;13.10;99.90;;;;;;5062274;28;20044;-84
2023/05/17 11:48:23;;;;;;;7.20;1.90;;;13.00;99.90;;;;;;5080540;28;20047;-83
2023/05/17 11:50:51;;;;;;;6.90;1.60;;;12.70;99.90;;;;;;5083070;28;20614;-82
2023/05/17 11:53:17;;;;;;;6.75;1.88;;;12.80;99.90;;;;;;5072271;28;20036;-84
2023/05/17 11:55:51;;;;;;;8.95;1.75;;;13.00;99.90;;;;;;5068452;28;20036;-82
2023/05/17 11:58:24;;;;;;;9.10;1.90;;;12.80;99.90;;;;;;5096564;28;20032;-83
2023/05/17 12:00:56;;;;;;;6.55;1.67;;;12.80;99.90;;;;;;5101082;28;20064;-83
2023/05/17 12:03:24;;;;;;;5.85;1.75;;;12.90;99.90;;;;;;5077568;28;20126;-85
2023/05/17 12:06:00;;;;;;;6.25;1.33;;;13.40;99.90;;;;;;5096272;28;20088;-84
2023/05/17 12:08:26;;;;;;;8.43;1.45;;;13.60;99.90;;;;;;5099251;28;20047;-84
2023/05/17 12:10:52;;;;;;;6.47;1.50;;;13.80;99.90;;;;;;5091344;28;20427;-84
2023/05/17 12:13:19;;;;;;;7.07;1.58;;;13.60;99.90;;;;;;5073317;28;20074;-83
2023/05/17 12:15:53;;;;;;;8.10;1.60;;;14.00;99.90;;;;;;5070772;28;20120;-82
2023/05/17 12:18:19;;;;;;;7.57;1.60;;;14.00;99.90;;;;;;5070979;28;20032;-81
2023/05/17 12:21:06;;;;;;;10.48;1.50;;;13.60;99.90;;;;;;5081966;28;20044;-84
2023/05/17 12:23:34;;;;;;;6.70;1.50;;;13.90;99.90;;;;;;5087219;28;20039;-81
2023/05/17 12:26:11;;;;;;;7.32;1.85;;;14.00;99.90;;;;;;5073734;28;20099;-83
2023/05/17 12:28:46;;;;;;;9.82;1.60;;;14.30;99.50;;;;;;5081898;28;20075;-83
2023/05/17 12:31:14;;;;;;;6.57;1.40;;;14.10;99.20;;;;;;5091710;28;20044;-83
2023/05/17 12:33:41;;;;;;;8.10;1.83;;;14.70;99.70;;;;;;5091044;28;20036;-84
2023/05/17 12:36:09;;;;;;;6.60;1.33;;;14.60;98.50;;;;;;5078704;28;20506;-83
2023/05/17 12:38:36;;;;;;;5.30;1.60;;;14.30;98.40;;;;;;5095382;28;20074;-85
2023/05/17 12:41:04;;;;;;;4.47;1.40;;;14.30;98.20;;;;;;5068389;28;20033;-86
2023/05/17 12:43:33;;;;;;;9.18;1.70;;;14.90;99.50;;;;;;5086759;28;20463;-84
2023/05/17 12:46:07;;;;;;;9.45;1.98;;;14.90;99.80;;;;;;5080357;28;20043;-83
2023/05/17 12:48:37;;;;;;;6.13;1.48;;;14.50;98.90;;;;;;5098545;28;20396;-82
2023/05/17 12:51:13;;;;;;;6.95;1.83;;;15.00;99.50;;;;;;5095870;28;20127;-81